sensor_id;sensor_type;location;lat;lon;timestamp;pressure;altitude;pressure_sealevel;temperature;humidity
58785;BME280;44557;51.862;19.378;2023-04-03T00:01:05;99872.85;;;1.12;78.78
58785;BME280;44557;51.862;19.378;2023-04-03T00:03:07;99876.71;;;1.04;78.61
58785;BME280;44557;51.862;19.378;2023-04-03T00:05:08;99877.95;;;1.12;78.52
58785;BME280;44557;51.862;19.378;2023-04-03T00:07:09;99878.28;;;1.16;78.23
58785;BME280;44557;51.862;19.378;2023-04-03T00:09:10;99882.80;;;1.14;78.27
58785;BME280;44557;51.862;19.378;2023-04-03T00:11:11;99882.30;;;1.19;78.02
58785;BME280;44557;51.862;19.378;2023-04-03T00:13:12;99882.73;;;1.20;78.10
58785;BME280;44557;51.862;19.378;2023-04-03T00:15:13;99884.73;;;1.20;77.82
58785;BME280;44557;51.862;19.378;2023-04-03T00:17:14;99887.84;;;1.15;78.24
58785;BME280;44557;51.862;19.378;2023-04-03T00:19:15;99886.76;;;1.08;78.31
58785;BME280;44557;51.862;19.378;2023-04-03T00:21:16;99886.26;;;1.02;78.54
58785;BME280;44557;51.862;19.378;2023-04-03T00:23:17;99886.85;;;0.99;78.37
58785;BME280;44557;51.862;19.378;2023-04-03T00:25:18;99892.02;;;1.05;78.11
58785;BME280;44557;51.862;19.378;2023-04-03T00:27:18;99895.64;;;0.96;78.64
58785;BME280;44557;51.862;19.378;2023-04-03T00:29:19;99898.85;;;1.01;78.63
58785;BME280;44557;51.862;19.378;2023-04-03T00:31:20;99896.52;;;0.94;78.34
58785;BME280;44557;51.862;19.378;2023-04-03T00:33:21;99899.16;;;0.92;78.03
58785;BME280;44557;51.862;19.378;2023-04-03T00:35:23;99902.41;;;0.90;78.50
58785;BME280;44557;51.862;19.378;2023-04-03T00:37:24;99901.44;;;0.86;78.59
58785;BME280;44557;51.862;19.378;2023-04-03T00:39:25;99898.50;;;0.82;78.79
58785;BME280;44557;51.862;19.378;2023-04-03T00:41:26;99899.48;;;0.76;78.90
58785;BME280;44557;51.862;19.378;2023-04-03T00:43:28;99899.30;;;0.81;78.90
58785;BME280;44557;51.862;19.378;2023-04-03T00:45:38;99899.64;;;0.80;78.85
58785;BME280;44557;51.862;19.378;2023-04-03T00:47:40;99900.39;;;0.73;78.96
58785;BME280;44557;51.862;19.378;2023-04-03T00:49:42;99898.23;;;0.77;78.91
58785;BME280;44557;51.862;19.378;2023-04-03T00:51:43;99903.33;;;0.81;78.54
58785;BME280;44557;51.862;19.378;2023-04-03T00:53:51;99905.27;;;0.77;78.78
58785;BME280;44557;51.862;19.378;2023-04-03T00:55:54;99902.79;;;0.82;78.78
58785;BME280;44557;51.862;19.378;2023-04-03T00:57:56;99905.55;;;0.76;78.60
58785;BME280;44557;51.862;19.378;2023-04-03T01:00:06;99903.68;;;0.67;79.16
58785;BME280;44557;51.862;19.378;2023-04-03T01:02:09;99905.48;;;0.68;79.13
58785;BME280;44557;51.862;19.378;2023-04-03T01:04:31;99907.86;;;0.66;78.87
58785;BME280;44557;51.862;19.378;2023-04-03T01:06:36;99907.49;;;0.69;79.22
58785;BME280;44557;51.862;19.378;2023-04-03T01:08:38;99910.84;;;0.65;79.01
58785;BME280;44557;51.862;19.378;2023-04-03T01:10:39;99907.69;;;0.58;79.26
58785;BME280;44557;51.862;19.378;2023-04-03T01:12:42;99911.19;;;0.52;79.30
58785;BME280;44557;51.862;19.378;2023-04-03T01:14:49;99911.79;;;0.53;79.66
58785;BME280;44557;51.862;19.378;2023-04-03T01:16:54;99910.38;;;0.55;79.45
58785;BME280;44557;51.862;19.378;2023-04-03T01:18:55;99913.52;;;0.52;79.25
58785;BME280;44557;51.862;19.378;2023-04-03T01:21:13;99914.73;;;0.38;79.78
58785;BME280;44557;51.862;19.378;2023-04-03T01:26:09;99918.56;;;0.51;79.56
58785;BME280;44557;51.862;19.378;2023-04-03T01:28:24;99920.68;;;0.50;78.93
58785;BME280;44557;51.862;19.378;2023-04-03T01:30:31;99925.51;;;0.49;79.18
58785;BME280;44557;51.862;19.378;2023-04-03T01:32:33;99923.62;;;0.55;79.05
58785;BME280;44557;51.862;19.378;2023-04-03T01:34:34;99926.59;;;0.56;79.11
58785;BME280;44557;51.862;19.378;2023-04-03T01:36:34;99925.54;;;0.44;79.51
58785;BME280;44557;51.862;19.378;2023-04-03T01:38:36;99927.63;;;0.37;79.41
58785;BME280;44557;51.862;19.378;2023-04-03T01:40:37;99928.23;;;0.42;79.52
58785;BME280;44557;51.862;19.378;2023-04-03T01:42:38;99930.60;;;0.36;79.62
58785;BME280;44557;51.862;19.378;2023-04-03T01:44:39;99935.17;;;0.25;79.65
58785;BME280;44557;51.862;19.378;2023-04-03T01:46:40;99931.35;;;0.33;79.45
58785;BME280;44557;51.862;19.378;2023-04-03T01:48:43;99934.61;;;0.35;79.55
58785;BME280;44557;51.862;19.378;2023-04-03T01:50:43;99931.39;;;0.27;79.63
58785;BME280;44557;51.862;19.378;2023-04-03T01:52:44;99936.89;;;0.24;79.66
58785;BME280;44557;51.862;19.378;2023-04-03T01:54:45;99933.61;;;0.26;79.48
58785;BME280;44557;51.862;19.378;2023-04-03T01:56:46;99938.21;;;0.26;79.98
58785;BME280;44557;51.862;19.378;2023-04-03T01:58:47;99936.11;;;0.19;79.78
58785;BME280;44557;51.862;19.378;2023-04-03T02:00:48;99935.70;;;0.21;79.80
58785;BME280;44557;51.862;19.378;2023-04-03T02:02:49;99937.41;;;0.19;79.60
58785;BME280;44557;51.862;19.378;2023-04-03T02:04:50;99936.48;;;0.14;80.03
58785;BME280;44557;51.862;19.378;2023-04-03T02:06:51;99939.43;;;0.20;79.69
58785;BME280;44557;51.862;19.378;2023-04-03T02:08:52;99940.05;;;0.25;79.15
58785;BME280;44557;51.862;19.378;2023-04-03T02:10:53;99943.45;;;0.23;79.30
58785;BME280;44557;51.862;19.378;2023-04-03T02:12:54;99946.45;;;0.26;79.12
58785;BME280;44557;51.862;19.378;2023-04-03T02:14:55;99946.67;;;0.26;78.94
58785;BME280;44557;51.862;19.378;2023-04-03T02:16:55;99950.42;;;0.31;78.74
58785;BME280;44557;51.862;19.378;2023-04-03T02:18:56;99951.73;;;0.20;78.81
58785;BME280;44557;51.862;19.378;2023-04-03T02:20:57;99951.98;;;0.27;78.31
58785;BME280;44557;51.862;19.378;2023-04-03T02:22:59;99952.34;;;0.24;78.17
58785;BME280;44557;51.862;19.378;2023-04-03T02:25:00;99954.96;;;0.18;78.26
58785;BME280;44557;51.862;19.378;2023-04-03T02:27:01;99956.87;;;0.18;78.15
58785;BME280;44557;51.862;19.378;2023-04-03T02:29:02;99954.98;;;0.08;78.77
58785;BME280;44557;51.862;19.378;2023-04-03T02:31:04;99957.80;;;0.11;78.21
58785;BME280;44557;51.862;19.378;2023-04-03T02:33:06;99953.42;;;0.12;77.99
58785;BME280;44557;51.862;19.378;2023-04-03T02:35:08;99956.05;;;0.07;78.16
58785;BME280;44557;51.862;19.378;2023-04-03T02:37:10;99955.81;;;-0.01;78.68
58785;BME280;44557;51.862;19.378;2023-04-03T02:39:10;99960.95;;;-0.02;78.82
58785;BME280;44557;51.862;19.378;2023-04-03T02:41:12;99965.66;;;0.01;78.75
58785;BME280;44557;51.862;19.378;2023-04-03T02:43:13;99963.89;;;0.04;78.74
58785;BME280;44557;51.862;19.378;2023-04-03T02:45:14;99962.77;;;-0.05;79.02
58785;BME280;44557;51.862;19.378;2023-04-03T02:47:15;99966.41;;;-0.03;79.06
58785;BME280;44557;51.862;19.378;2023-04-03T02:49:17;99960.98;;;-0.02;79.46
58785;BME280;44557;51.862;19.378;2023-04-03T02:51:17;99962.19;;;0.00;78.97
58785;BME280;44557;51.862;19.378;2023-04-03T02:53:19;99964.95;;;0.00;79.08
58785;BME280;44557;51.862;19.378;2023-04-03T02:55:19;99967.31;;;-0.04;79.61
58785;BME280;44557;51.862;19.378;2023-04-03T02:57:20;99968.92;;;0.13;78.89
58785;BME280;44557;51.862;19.378;2023-04-03T02:59:21;99963.59;;;0.09;78.42
58785;BME280;44557;51.862;19.378;2023-04-03T03:01:22;99971.82;;;0.08;78.24
58785;BME280;44557;51.862;19.378;2023-04-03T03:03:23;99970.36;;;0.08;78.11
58785;BME280;44557;51.862;19.378;2023-04-03T03:05:25;99978.35;;;0.00;78.43
58785;BME280;44557;51.862;19.378;2023-04-03T03:07:26;99975.02;;;-0.02;78.66
58785;BME280;44557;51.862;19.378;2023-04-03T03:09:27;99975.92;;;-0.07;78.53
58785;BME280;44557;51.862;19.378;2023-04-03T03:11:28;99977.96;;;-0.08;78.65
58785;BME280;44557;51.862;19.378;2023-04-03T03:13:29;99979.48;;;-0.08;78.84
58785;BME280;44557;51.862;19.378;2023-04-03T03:15:30;99980.91;;;-0.04;78.35
58785;BME280;44557;51.862;19.378;2023-04-03T03:17:31;99981.11;;;-0.09;78.83
58785;BME280;44557;51.862;19.378;2023-04-03T03:19:32;99988.11;;;-0.06;78.52
58785;BME280;44557;51.862;19.378;2023-04-03T03:21:32;99988.66;;;-0.12;78.75
58785;BME280;44557;51.862;19.378;2023-04-03T03:23:33;99993.93;;;-0.16;78.75
58785;BME280;44557;51.862;19.378;2023-04-03T03:25:41;99991.30;;;-0.21;78.69
58785;BME280;44557;51.862;19.378;2023-04-03T03:27:41;99997.35;;;-0.17;78.76
58785;BME280;44557;51.862;19.378;2023-04-03T03:29:42;99990.73;;;-0.19;78.84
58785;BME280;44557;51.862;19.378;2023-04-03T03:31:43;99992.85;;;-0.25;78.59
58785;BME280;44557;51.862;19.378;2023-04-03T03:33:44;99994.14;;;-0.25;78.59
58785;BME280;44557;51.862;19.378;2023-04-03T03:35:45;99994.23;;;-0.12;78.19
58785;BME280;44557;51.862;19.378;2023-04-03T03:37:46;99998.61;;;-0.13;78.19
58785;BME280;44557;51.862;19.378;2023-04-03T03:39:47;99999.27;;;-0.14;78.43
58785;BME280;44557;51.862;19.378;2023-04-03T03:41:48;100001.14;;;-0.24;78.22
58785;BME280;44557;51.862;19.378;2023-04-03T03:43:50;100001.52;;;-0.24;78.48
58785;BME280;44557;51.862;19.378;2023-04-03T03:45:52;99998.59;;;-0.25;78.51
58785;BME280;44557;51.862;19.378;2023-04-03T03:47:53;100001.90;;;-0.19;78.04
58785;BME280;44557;51.862;19.378;2023-04-03T03:49:54;100004.89;;;-0.36;78.45
58785;BME280;44557;51.862;19.378;2023-04-03T03:51:55;100006.11;;;-0.32;78.66
58785;BME280;44557;51.862;19.378;2023-04-03T03:53:56;100005.91;;;-0.37;78.73
58785;BME280;44557;51.862;19.378;2023-04-03T03:55:57;100007.63;;;-0.40;78.86
58785;BME280;44557;51.862;19.378;2023-04-03T03:57:58;100008.09;;;-0.35;78.45
58785;BME280;44557;51.862;19.378;2023-04-03T03:59:59;100013.39;;;-0.37;78.50
58785;BME280;44557;51.862;19.378;2023-04-03T04:02:00;100013.26;;;-0.47;78.75
58785;BME280;44557;51.862;19.378;2023-04-03T04:04:00;100013.59;;;-0.45;78.60
58785;BME280;44557;51.862;19.378;2023-04-03T04:06:01;100015.40;;;-0.49;78.77
58785;BME280;44557;51.862;19.378;2023-04-03T04:08:02;100017.73;;;-0.54;79.02
58785;BME280;44557;51.862;19.378;2023-04-03T04:10:04;100020.23;;;-0.53;79.13
58785;BME280;44557;51.862;19.378;2023-04-03T04:12:05;100015.88;;;-0.52;79.11
58785;BME280;44557;51.862;19.378;2023-04-03T04:14:06;100022.65;;;-0.55;79.18
58785;BME280;44557;51.862;19.378;2023-04-03T04:16:07;100019.50;;;-0.57;79.51
58785;BME280;44557;51.862;19.378;2023-04-03T04:18:08;100024.64;;;-0.52;79.00
58785;BME280;44557;51.862;19.378;2023-04-03T04:20:09;100022.23;;;-0.54;79.19
58785;BME280;44557;51.862;19.378;2023-04-03T04:22:10;100023.88;;;-0.51;78.98
58785;BME280;44557;51.862;19.378;2023-04-03T04:24:12;100018.17;;;-0.47;79.00
58785;BME280;44557;51.862;19.378;2023-04-03T04:26:12;100028.24;;;-0.60;79.46
58785;BME280;44557;51.862;19.378;2023-04-03T04:28:14;100030.05;;;-0.58;79.36
58785;BME280;44557;51.862;19.378;2023-04-03T04:30:15;100027.48;;;-0.53;79.30
58785;BME280;44557;51.862;19.378;2023-04-03T04:32:16;100027.16;;;-0.54;79.37
58785;BME280;44557;51.862;19.378;2023-04-03T04:34:17;100029.30;;;-0.50;79.20
58785;BME280;44557;51.862;19.378;2023-04-03T04:36:18;100032.82;;;-0.50;79.22
58785;BME280;44557;51.862;19.378;2023-04-03T04:38:19;100030.95;;;-0.53;79.32
58785;BME280;44557;51.862;19.378;2023-04-03T04:40:20;100030.75;;;-0.58;79.51
58785;BME280;44557;51.862;19.378;2023-04-03T04:42:21;100034.88;;;-0.62;79.48
58785;BME280;44557;51.862;19.378;2023-04-03T04:44:22;100038.23;;;-0.49;79.21
58785;BME280;44557;51.862;19.378;2023-04-03T04:46:23;100040.06;;;-0.51;79.52
58785;BME280;44557;51.862;19.378;2023-04-03T04:48:24;100036.25;;;-0.58;79.40
58785;BME280;44557;51.862;19.378;2023-04-03T04:50:25;100040.63;;;-0.55;79.70
58785;BME280;44557;51.862;19.378;2023-04-03T04:52:26;100038.77;;;-0.37;79.18
58785;BME280;44557;51.862;19.378;2023-04-03T04:54:27;100039.23;;;-0.19;78.40
58785;BME280;44557;51.862;19.378;2023-04-03T04:56:28;100039.95;;;-0.19;77.95
58785;BME280;44557;51.862;19.378;2023-04-03T04:58:29;100043.60;;;-0.15;78.02
58785;BME280;44557;51.862;19.378;2023-04-03T05:00:29;100046.14;;;-0.15;78.00
58785;BME280;44557;51.862;19.378;2023-04-03T05:02:31;100050.58;;;-0.16;78.12
58785;BME280;44557;51.862;19.378;2023-04-03T05:04:31;100048.42;;;-0.08;77.59
58785;BME280;44557;51.862;19.378;2023-04-03T05:06:33;100051.70;;;0.04;77.31
58785;BME280;44557;51.862;19.378;2023-04-03T05:08:35;100049.31;;;0.14;76.91
58785;BME280;44557;51.862;19.378;2023-04-03T05:10:36;100050.54;;;0.12;76.88
58785;BME280;44557;51.862;19.378;2023-04-03T05:12:37;100055.52;;;0.25;76.73
58785;BME280;44557;51.862;19.378;2023-04-03T05:14:38;100057.25;;;0.37;75.86
58785;BME280;44557;51.862;19.378;2023-04-03T05:16:39;100061.23;;;0.39;75.70
58785;BME280;44557;51.862;19.378;2023-04-03T05:18:40;100059.27;;;0.71;74.77
58785;BME280;44557;51.862;19.378;2023-04-03T05:20:40;100055.95;;;0.97;73.88
58785;BME280;44557;51.862;19.378;2023-04-03T05:22:41;100055.11;;;1.37;72.10
58785;BME280;44557;51.862;19.378;2023-04-03T05:24:42;100059.20;;;1.56;71.28
58785;BME280;44557;51.862;19.378;2023-04-03T05:26:43;100057.02;;;1.96;69.76
58785;BME280;44557;51.862;19.378;2023-04-03T05:28:44;100058.55;;;2.25;68.60
58785;BME280;44557;51.862;19.378;2023-04-03T05:30:52;100063.39;;;2.25;68.30
58785;BME280;44557;51.862;19.378;2023-04-03T05:32:54;100066.42;;;2.55;67.14
58785;BME280;44557;51.862;19.378;2023-04-03T05:34:56;100064.26;;;2.80;65.51
58785;BME280;44557;51.862;19.378;2023-04-03T05:36:56;100061.67;;;2.89;65.12
58785;BME280;44557;51.862;19.378;2023-04-03T05:38:57;100067.91;;;3.04;65.11
58785;BME280;44557;51.862;19.378;2023-04-03T05:40:58;100071.17;;;3.24;63.88
58785;BME280;44557;51.862;19.378;2023-04-03T05:43:00;100070.84;;;3.68;62.59
58785;BME280;44557;51.862;19.378;2023-04-03T05:45:00;100071.58;;;3.62;62.15
58785;BME280;44557;51.862;19.378;2023-04-03T05:47:02;100072.30;;;3.70;61.89
58785;BME280;44557;51.862;19.378;2023-04-03T05:49:03;100071.73;;;3.98;61.29
58785;BME280;44557;51.862;19.378;2023-04-03T05:51:05;100067.84;;;4.24;60.25
58785;BME280;44557;51.862;19.378;2023-04-03T05:53:07;100066.44;;;4.11;60.27
58785;BME280;44557;51.862;19.378;2023-04-03T05:55:12;100065.55;;;4.24;59.60
58785;BME280;44557;51.862;19.378;2023-04-03T05:57:13;100067.42;;;4.79;58.26
58785;BME280;44557;51.862;19.378;2023-04-03T05:59:14;100068.61;;;4.87;58.23
58785;BME280;44557;51.862;19.378;2023-04-03T06:01:15;100070.48;;;5.04;57.05
58785;BME280;44557;51.862;19.378;2023-04-03T06:03:16;100065.66;;;4.93;56.76
58785;BME280;44557;51.862;19.378;2023-04-03T06:05:17;100068.73;;;5.13;56.44
58785;BME280;44557;51.862;19.378;2023-04-03T06:07:21;100072.34;;;5.19;55.79
58785;BME280;44557;51.862;19.378;2023-04-03T06:09:25;100073.06;;;5.46;55.14
58785;BME280;44557;51.862;19.378;2023-04-03T06:11:27;100071.77;;;5.65;55.19
58785;BME280;44557;51.862;19.378;2023-04-03T06:13:28;100072.34;;;5.58;54.28
58785;BME280;44557;51.862;19.378;2023-04-03T06:15:29;100073.63;;;5.57;53.80
58785;BME280;44557;51.862;19.378;2023-04-03T06:17:30;100073.68;;;5.60;53.57
58785;BME280;44557;51.862;19.378;2023-04-03T06:19:30;100070.96;;;5.66;53.24
58785;BME280;44557;51.862;19.378;2023-04-03T06:21:31;100082.45;;;5.71;53.51
58785;BME280;44557;51.862;19.378;2023-04-03T06:23:32;100080.23;;;5.82;53.48
58785;BME280;44557;51.862;19.378;2023-04-03T06:25:33;100079.11;;;5.85;52.63
58785;BME280;44557;51.862;19.378;2023-04-03T06:27:34;100082.95;;;5.54;53.07
58785;BME280;44557;51.862;19.378;2023-04-03T06:29:35;100088.48;;;5.93;52.66
58785;BME280;44557;51.862;19.378;2023-04-03T06:31:36;100089.89;;;6.24;52.88
58785;BME280;44557;51.862;19.378;2023-04-03T06:33:37;100095.68;;;6.28;52.44
58785;BME280;44557;51.862;19.378;2023-04-03T06:35:38;100084.91;;;6.36;52.21
58785;BME280;44557;51.862;19.378;2023-04-03T06:37:39;100090.40;;;6.33;51.12
58785;BME280;44557;51.862;19.378;2023-04-03T06:39:40;100088.20;;;6.33;50.73
58785;BME280;44557;51.862;19.378;2023-04-03T06:41:41;100094.87;;;6.30;51.19
58785;BME280;44557;51.862;19.378;2023-04-03T06:43:43;100098.55;;;6.57;50.71
58785;BME280;44557;51.862;19.378;2023-04-03T06:45:44;100092.16;;;6.05;51.13
58785;BME280;44557;51.862;19.378;2023-04-03T06:47:45;100097.23;;;6.32;51.74
58785;BME280;44557;51.862;19.378;2023-04-03T06:49:46;100096.95;;;6.11;51.31
58785;BME280;44557;51.862;19.378;2023-04-03T06:51:47;100099.73;;;6.19;51.06
58785;BME280;44557;51.862;19.378;2023-04-03T06:53:49;100098.54;;;6.36;50.58
58785;BME280;44557;51.862;19.378;2023-04-03T06:55:51;100093.14;;;6.74;49.80
58785;BME280;44557;51.862;19.378;2023-04-03T06:57:52;100095.45;;;6.73;48.77
58785;BME280;44557;51.862;19.378;2023-04-03T06:59:52;100096.26;;;6.73;49.36
58785;BME280;44557;51.862;19.378;2023-04-03T07:01:53;100097.73;;;6.32;49.53
58785;BME280;44557;51.862;19.378;2023-04-03T07:03:54;100098.94;;;6.36;49.77
58785;BME280;44557;51.862;19.378;2023-04-03T07:05:56;100093.89;;;6.63;48.46
58785;BME280;44557;51.862;19.378;2023-04-03T07:07:57;100103.83;;;6.58;48.08
58785;BME280;44557;51.862;19.378;2023-04-03T07:09:58;100103.20;;;6.48;48.15
58785;BME280;44557;51.862;19.378;2023-04-03T07:11:58;100101.20;;;6.95;47.82
58785;BME280;44557;51.862;19.378;2023-04-03T07:13:59;100096.77;;;6.96;46.69
58785;BME280;44557;51.862;19.378;2023-04-03T07:16:00;100109.30;;;6.29;47.10
58785;BME280;44557;51.862;19.378;2023-04-03T07:18:01;100110.29;;;6.44;47.62
58785;BME280;44557;51.862;19.378;2023-04-03T07:20:03;100102.84;;;6.63;46.84
58785;BME280;44557;51.862;19.378;2023-04-03T07:22:04;100101.30;;;6.41;46.40
58785;BME280;44557;51.862;19.378;2023-04-03T07:24:05;100109.04;;;5.91;47.21
58785;BME280;44557;51.862;19.378;2023-04-03T07:26:06;100116.04;;;5.90;48.10
58785;BME280;44557;51.862;19.378;2023-04-03T07:28:08;100117.73;;;6.12;47.72
58785;BME280;44557;51.862;19.378;2023-04-03T07:30:09;100120.02;;;6.15;47.82
58785;BME280;44557;51.862;19.378;2023-04-03T07:32:10;100129.27;;;6.71;47.61
58785;BME280;44557;51.862;19.378;2023-04-03T07:34:11;100118.45;;;6.78;46.16
58785;BME280;44557;51.862;19.378;2023-04-03T07:36:18;100133.55;;;6.31;46.31
58785;BME280;44557;51.862;19.378;2023-04-03T07:38:19;100135.92;;;6.58;45.06
58785;BME280;44557;51.862;19.378;2023-04-03T07:40:20;100129.73;;;6.16;45.94
58785;BME280;44557;51.862;19.378;2023-04-03T07:42:21;100132.98;;;6.39;45.10
58785;BME280;44557;51.862;19.378;2023-04-03T07:44:22;100140.63;;;6.54;45.39
58785;BME280;44557;51.862;19.378;2023-04-03T07:46:23;100128.90;;;6.61;45.36
58785;BME280;44557;51.862;19.378;2023-04-03T07:48:25;100142.69;;;6.47;45.01
58785;BME280;44557;51.862;19.378;2023-04-03T07:50:27;100141.16;;;6.34;45.44
58785;BME280;44557;51.862;19.378;2023-04-03T07:52:27;100140.86;;;7.03;45.59
58785;BME280;44557;51.862;19.378;2023-04-03T07:54:28;100144.38;;;6.83;45.80
58785;BME280;44557;51.862;19.378;2023-04-03T07:56:29;100143.75;;;6.58;46.65
58785;BME280;44557;51.862;19.378;2023-04-03T07:58:30;100137.95;;;6.17;47.39
58785;BME280;44557;51.862;19.378;2023-04-03T08:00:31;100142.30;;;6.07;47.32
58785;BME280;44557;51.862;19.378;2023-04-03T08:02:32;100139.52;;;6.46;44.00
58785;BME280;44557;51.862;19.378;2023-04-03T08:04:33;100149.36;;;6.41;44.56
58785;BME280;44557;51.862;19.378;2023-04-03T08:06:34;100151.29;;;6.17;46.29
58785;BME280;44557;51.862;19.378;2023-04-03T08:08:36;100151.23;;;6.52;46.97
58785;BME280;44557;51.862;19.378;2023-04-03T08:10:38;100156.27;;;6.40;46.23
58785;BME280;44557;51.862;19.378;2023-04-03T08:12:39;100154.42;;;6.48;45.10
58785;BME280;44557;51.862;19.378;2023-04-03T08:14:40;100156.23;;;6.47;43.70
58785;BME280;44557;51.862;19.378;2023-04-03T08:16:42;100161.05;;;6.39;43.66
58785;BME280;44557;51.862;19.378;2023-04-03T08:18:45;100162.91;;;6.75;44.58
58785;BME280;44557;51.862;19.378;2023-04-03T08:20:46;100160.19;;;6.11;44.45
58785;BME280;44557;51.862;19.378;2023-04-03T08:22:47;100166.94;;;6.10;46.28
58785;BME280;44557;51.862;19.378;2023-04-03T08:24:48;100166.50;;;6.33;45.13
58785;BME280;44557;51.862;19.378;2023-04-03T08:26:49;100170.75;;;5.76;46.35
58785;BME280;44557;51.862;19.378;2023-04-03T08:28:50;100173.39;;;5.63;45.85
58785;BME280;44557;51.862;19.378;2023-04-03T08:30:51;100170.63;;;5.84;46.49
58785;BME280;44557;51.862;19.378;2023-04-03T08:32:52;100172.63;;;6.34;45.11
58785;BME280;44557;51.862;19.378;2023-04-03T08:34:52;100171.80;;;6.47;44.95
58785;BME280;44557;51.862;19.378;2023-04-03T08:36:53;100174.20;;;6.60;45.36
58785;BME280;44557;51.862;19.378;2023-04-03T08:38:56;100179.30;;;6.59;45.41
58785;BME280;44557;51.862;19.378;2023-04-03T08:41:42;100179.02;;;6.69;44.54
58785;BME280;44557;51.862;19.378;2023-04-03T08:43:56;100179.71;;;6.61;47.38
58785;BME280;44557;51.862;19.378;2023-04-03T08:46:01;100182.10;;;7.15;46.24
58785;BME280;44557;51.862;19.378;2023-04-03T08:48:31;100179.52;;;6.99;45.57
58785;BME280;44557;51.862;19.378;2023-04-03T08:50:37;100188.21;;;6.66;46.23
58785;BME280;44557;51.862;19.378;2023-04-03T08:52:42;100189.98;;;6.30;46.84
58785;BME280;44557;51.862;19.378;2023-04-03T08:54:52;100187.20;;;6.02;46.54
58785;BME280;44557;51.862;19.378;2023-04-03T08:56:53;100191.98;;;5.94;47.05
58785;BME280;44557;51.862;19.378;2023-04-03T08:58:58;100185.45;;;6.46;44.80
58785;BME280;44557;51.862;19.378;2023-04-03T09:01:12;100185.88;;;6.30;45.10
58785;BME280;44557;51.862;19.378;2023-04-03T09:03:18;100189.45;;;6.33;46.79
58785;BME280;44557;51.862;19.378;2023-04-03T09:08:12;100188.71;;;6.06;46.68
58785;BME280;44557;51.862;19.378;2023-04-03T09:10:25;100186.98;;;6.52;45.24
58785;BME280;44557;51.862;19.378;2023-04-03T09:12:33;100184.56;;;6.92;44.42
58785;BME280;44557;51.862;19.378;2023-04-03T09:15:14;100184.52;;;6.98;44.56
58785;BME280;44557;51.862;19.378;2023-04-03T09:19:47;100184.88;;;6.25;46.42
58785;BME280;44557;51.862;19.378;2023-04-03T09:21:52;100181.34;;;6.72;45.54
58785;BME280;44557;51.862;19.378;2023-04-03T09:23:58;100178.58;;;6.99;44.87
58785;BME280;44557;51.862;19.378;2023-04-03T09:26:03;100183.88;;;5.82;45.66
58785;BME280;44557;51.862;19.378;2023-04-03T09:28:06;100191.07;;;5.69;47.64
58785;BME280;44557;51.862;19.378;2023-04-03T09:30:14;100196.40;;;5.34;47.17
58785;BME280;44557;51.862;19.378;2023-04-03T09:32:30;100187.31;;;5.65;45.58
58785;BME280;44557;51.862;19.378;2023-04-03T09:34:37;100186.50;;;6.50;45.83
58785;BME280;44557;51.862;19.378;2023-04-03T09:36:47;100189.11;;;6.45;45.90
58785;BME280;44557;51.862;19.378;2023-04-03T09:39:05;100196.16;;;5.56;48.44
58785;BME280;44557;51.862;19.378;2023-04-03T09:41:16;100194.34;;;5.31;47.79
58785;BME280;44557;51.862;19.378;2023-04-03T09:43:36;100195.56;;;4.91;48.38
58785;BME280;44557;51.862;19.378;2023-04-03T09:45:39;100195.64;;;4.66;48.81
58785;BME280;44557;51.862;19.378;2023-04-03T09:47:40;100197.20;;;4.68;49.82
58785;BME280;44557;51.862;19.378;2023-04-03T09:49:42;100194.96;;;5.55;49.34
58785;BME280;44557;51.862;19.378;2023-04-03T09:51:43;100193.30;;;6.07;48.05
58785;BME280;44557;51.862;19.378;2023-04-03T09:53:45;100188.69;;;6.29;46.90
58785;BME280;44557;51.862;19.378;2023-04-03T09:55:46;100195.88;;;6.57;46.12
58785;BME280;44557;51.862;19.378;2023-04-03T09:57:48;100194.18;;;6.91;46.39
58785;BME280;44557;51.862;19.378;2023-04-03T09:59:58;100192.96;;;6.38;47.45
58785;BME280;44557;51.862;19.378;2023-04-03T10:02:21;100192.96;;;6.03;48.28
58785;BME280;44557;51.862;19.378;2023-04-03T10:04:23;100192.52;;;5.49;47.73
58785;BME280;44557;51.862;19.378;2023-04-03T10:06:24;100205.92;;;5.12;47.04
58785;BME280;44557;51.862;19.378;2023-04-03T10:08:34;100206.54;;;5.03;47.63
58785;BME280;44557;51.862;19.378;2023-04-03T10:10:35;100208.29;;;4.95;47.92
58785;BME280;44557;51.862;19.378;2023-04-03T10:12:36;100204.41;;;5.65;47.15
58785;BME280;44557;51.862;19.378;2023-04-03T10:14:39;100202.98;;;5.25;46.54
58785;BME280;44557;51.862;19.378;2023-04-03T10:19:25;100205.91;;;5.37;46.83
58785;BME280;44557;51.862;19.378;2023-04-03T10:21:42;100197.48;;;6.15;46.09
58785;BME280;44557;51.862;19.378;2023-04-03T10:23:51;100192.75;;;6.82;44.72
58785;BME280;44557;51.862;19.378;2023-04-03T10:28:29;100189.06;;;7.61;44.18
58785;BME280;44557;51.862;19.378;2023-04-03T10:30:49;100191.48;;;7.47;44.17
58785;BME280;44557;51.862;19.378;2023-04-03T10:33:02;100194.88;;;7.29;43.99
58785;BME280;44557;51.862;19.378;2023-04-03T10:35:17;100179.57;;;7.32;43.55
58785;BME280;44557;51.862;19.378;2023-04-03T10:37:24;100186.92;;;6.77;44.22
58785;BME280;44557;51.862;19.378;2023-04-03T10:41:46;100181.24;;;5.88;45.12
58785;BME280;44557;51.862;19.378;2023-04-03T10:44:28;100184.73;;;5.82;44.47
58785;BME280;44557;51.862;19.378;2023-04-03T10:46:49;100185.93;;;5.96;45.23
58785;BME280;44557;51.862;19.378;2023-04-03T10:49:20;100181.91;;;6.94;43.89
58785;BME280;44557;51.862;19.378;2023-04-03T10:54:29;100177.83;;;6.13;43.92
58785;BME280;44557;51.862;19.378;2023-04-03T10:58:45;100184.02;;;6.46;44.32
58785;BME280;44557;51.862;19.378;2023-04-03T11:00:50;100180.71;;;6.47;44.55
58785;BME280;44557;51.862;19.378;2023-04-03T11:02:58;100181.36;;;6.15;43.15
58785;BME280;44557;51.862;19.378;2023-04-03T11:05:26;100182.36;;;6.54;43.60